| time (UTC) | temp C | wind direction | speed KPH | gust KPH | rain 1hr cm | rain 24hr cm | rain mn cm | humidity % | barometer mb |
| 20260505122048 | 14 | 215 | 0.0 | 8.0 | 0.00 | 0.15 | 0.03 | 85 | 1015.2 |
| 20260505121556 | 13 | 163 | 1.6 | 8.0 | 0.00 | 0.15 | 0.03 | 87 | 1015.2 |
| 20260505121048 | 13 | 181 | 0.0 | 6.4 | 0.00 | 0.15 | 0.03 | 92 | 1015.2 |
| 20260505120547 | 12 | 340 | 1.6 | 11.3 | 0.00 | 0.15 | 0.03 | 92 | 1015.2 |
| 20260505120059 | 12 | 308 | 1.6 | 11.3 | 0.00 | 0.15 | 0.03 | 96 | 1015.3 |
| 20260505115549 | 11 | 15 | 0.0 | 4.8 | 0.00 | 0.15 | 0.03 | 96 | 1015.2 |
| 20260505115048 | 11 | 290 | 0.0 | 3.2 | 0.00 | 0.15 | 0.03 | 97 | 1015.2 |
| 20260505114552 | 10 | 0 | 0.0 | 4.8 | 0.00 | 0.15 | 0.03 | 96 | 1015.1 |
| 20260505114048 | 10 | 304 | 1.6 | 8.0 | 0.00 | 0.15 | 0.03 | 96 | 1015.1 |
| 20260505113548 | 10 | 0 | 1.6 | 8.0 | 0.00 | 0.15 | 0.03 | 96 | 1015.0 |
| 20260505113112 | 9 | 292 | 0.0 | 8.0 | 0.00 | 0.15 | 0.03 | 96 | 1015.1 |
| 20260505112548 | 9 | 0 | 0.0 | 0.0 | 0.00 | 0.15 | 0.03 | 96 | 1015.0 |
| 20260505112048 | 8 | 0 | 0.0 | 0.0 | 0.00 | 0.15 | 0.03 | 96 | 1014.9 |
| 20260505111553 | 8 | 0 | 0.0 | 0.0 | 0.00 | 0.15 | 0.03 | 96 | 1014.9 |
| 20260505111049 | 8 | 0 | 0.0 | 0.0 | 0.00 | 0.15 | 0.03 | 95 | 1014.9 |
| 20260505110548 | 8 | 0 | 0.0 | 0.0 | 0.00 | 0.15 | 0.03 | 95 | 1014.8 |
| 20260505102048 | 8 | 0 | 0.0 | 0.0 | 0.00 | 0.15 | 0.03 | 95 | 1014.6 |
| 20260505101559 | 8 | 0 | 0.0 | 0.0 | 0.00 | 0.15 | 0.03 | 95 | 1014.5 |
| 20260505101048 | 8 | 0 | 0.0 | 0.0 | 0.00 | 0.15 | 0.03 | 96 | 1014.5 |
| 20260505100551 | 8 | 0 | 0.0 | 0.0 | 0.00 | 0.15 | 0.03 | 96 | 1014.3 |
| 20260505100053 | 8 | 0 | 0.0 | 0.0 | 0.00 | 0.15 | 0.03 | 95 | 1014.4 |
| 20260505095547 | 8 | 0 | 0.0 | 0.0 | 0.00 | 0.15 | 0.03 | 96 | 1014.4 |
| 20260505095047 | 8 | 0 | 0.0 | 0.0 | 0.00 | 0.15 | 0.03 | 96 | 1014.5 |
| 20260505094618 | 8 | 0 | 0.0 | 0.0 | 0.00 | 0.15 | 0.03 | 95 | 1014.4 |
| 20260505094048 | 8 | 0 | 0.0 | 0.0 | 0.00 | 0.15 | 0.03 | 95 | 1014.5 |
| 20260505093548 | 8 | 0 | 0.0 | 0.0 | 0.03 | 0.15 | 0.03 | 95 | 1014.4 |
| 20260505093101 | 8 | 0 | 0.0 | 0.0 | 0.03 | 0.15 | 0.03 | 95 | 1014.3 |
| 20260505092548 | 8 | 0 | 0.0 | 0.0 | 0.03 | 0.15 | 0.03 | 95 | 1014.3 |
| 20260505092048 | 8 | 0 | 0.0 | 0.0 | 0.03 | 0.15 | 0.03 | 95 | 1014.3 |
| 20260505091604 | 8 | 0 | 0.0 | 0.0 | 0.03 | 0.15 | 0.03 | 95 | 1014.3 |
| 20260505091049 | 8 | 0 | 0.0 | 0.0 | 0.03 | 0.15 | 0.03 | 95 | 1014.3 |
| 20260505090548 | 8 | 0 | 0.0 | 0.0 | 0.03 | 0.15 | 0.03 | 95 | 1014.2 |
| 20260505090106 | 8 | 0 | 0.0 | 0.0 | 0.03 | 0.15 | 0.03 | 95 | 1014.1 |
| 20260505085548 | 8 | 0 | 0.0 | 0.0 | 0.03 | 0.15 | 0.03 | 95 | 1014.1 |
| 20260505085048 | 8 | 0 | 0.0 | 0.0 | 0.03 | 0.15 | 0.03 | 96 | 1014.1 |
| 20260505084559 | 8 | 0 | 0.0 | 0.0 | 0.03 | 0.15 | 0.03 | 95 | 1014.1 |
| 20260505084048 | 8 | 0 | 0.0 | 0.0 | 0.03 | 0.15 | 0.03 | 95 | 1014.1 |
| 20260505083548 | 8 | 0 | 0.0 | 0.0 | 0.00 | 0.13 | 0.00 | 95 | 1013.9 |
| 20260505083105 | 8 | 0 | 0.0 | 0.0 | 0.00 | 0.13 | 0.00 | 95 | 1014.0 |
| 20260505082547 | 8 | 0 | 0.0 | 0.0 | 0.00 | 0.13 | 0.00 | 95 | 1014.0 |
| 20260505082048 | 8 | 0 | 0.0 | 0.0 | 0.00 | 0.13 | 0.00 | 95 | 1014.0 |
| 20260505081600 | 8 | 0 | 0.0 | 0.0 | 0.00 | 0.13 | 0.00 | 95 | 1013.9 |
| 20260505081047 | 8 | 0 | 0.0 | 0.0 | 0.00 | 0.13 | 0.00 | 95 | 1013.9 |
| 20260505080553 | 8 | 0 | 0.0 | 0.0 | 0.00 | 0.13 | 0.00 | 95 | 1013.9 |
| 20260505080053 | 8 | 0 | 0.0 | 0.0 | 0.00 | 0.13 | 0.00 | 95 | 1013.8 |
| 20260505075549 | 8 | 0 | 0.0 | 0.0 | 0.00 | 0.13 | 0.00 | 95 | 1013.8 |
| 20260505075048 | 8 | 0 | 0.0 | 0.0 | 0.00 | 0.13 | 0.00 | 95 | 1013.8 |
| 20260505074552 | 8 | 0 | 0.0 | 0.0 | 0.00 | 0.13 | 0.00 | 95 | 1013.7 |
| 20260505074050 | 8 | 0 | 0.0 | 0.0 | 0.00 | 0.13 | 0.00 | 95 | 1013.7 |
| 20260505073548 | 9 | 0 | 0.0 | 0.0 | 0.00 | 0.13 | 0.00 | 95 | 1013.7 |
| 20260505073051 | 9 | 0 | 0.0 | 0.0 | 0.00 | 0.13 | 0.00 | 95 | 1013.7 |
| 20260505072548 | 9 | 0 | 0.0 | 0.0 | 0.00 | 0.13 | 0.00 | 95 | 1013.7 |
| 20260505072048 | 9 | 0 | 0.0 | 0.0 | 0.00 | 0.13 | 0.00 | 95 | 1013.7 |
| 20260505071551 | 9 | 0 | 0.0 | 0.0 | 0.00 | 0.13 | 0.00 | 95 | 1013.6 |
| 20260505071048 | 9 | 0 | 0.0 | 0.0 | 0.00 | 0.13 | 0.00 | 95 | 1013.5 |
| 20260505070548 | 9 | 0 | 0.0 | 0.0 | 0.00 | 0.13 | 0.00 | 95 | 1013.4 |
| 20260505070051 | 9 | 0 | 0.0 | 0.0 | 0.00 | 0.13 | 0.00 | 95 | 1013.5 |
| 20260505065549 | 9 | 0 | 0.0 | 0.0 | 0.00 | 0.13 | 0.00 | 95 | 1013.5 |
| 20260505065047 | 9 | 0 | 0.0 | 0.0 | 0.00 | 0.13 | 0.00 | 95 | 1013.5 |
| 20260505064554 | 9 | 0 | 0.0 | 0.0 | 0.00 | 0.13 | 0.00 | 95 | 1013.4 |
| 20260505064047 | 9 | 0 | 0.0 | 0.0 | 0.00 | 0.13 | 0.00 | 95 | 1013.4 |
| 20260505063548 | 9 | 0 | 0.0 | 0.0 | 0.00 | 0.13 | 0.00 | 95 | 1013.4 |
| 20260505063048 | 9 | 0 | 0.0 | 0.0 | 0.00 | 0.13 | 0.00 | 95 | 1013.4 |
| 20260505062548 | 9 | 0 | 0.0 | 0.0 | 0.00 | 0.13 | 0.00 | 95 | 1013.5 |
| 20260505062049 | 9 | 0 | 0.0 | 0.0 | 0.00 | 0.13 | 0.00 | 95 | 1013.4 |
| 20260505061552 | 10 | 0 | 0.0 | 0.0 | 0.00 | 0.13 | 0.00 | 95 | 1013.4 |
| 20260505061048 | 10 | 0 | 0.0 | 0.0 | 0.00 | 0.13 | 0.00 | 95 | 1013.5 |
| 20260505060548 | 10 | 0 | 0.0 | 0.0 | 0.00 | 0.13 | 0.00 | 95 | 1013.5 |
| 20260505060055 | 10 | 0 | 0.0 | 0.0 | 0.00 | 0.13 | 0.00 | 95 | 1013.4 |
| 20260505055549 | 10 | 0 | 0.0 | 0.0 | 0.00 | 0.13 | 0.00 | 95 | 1013.4 |
| 20260505055048 | 10 | 0 | 0.0 | 0.0 | 0.00 | 0.13 | 0.00 | 95 | 1013.4 |
| 20260505054557 | 10 | 0 | 0.0 | 0.0 | 0.00 | 0.13 | 0.00 | 95 | 1013.4 |
| 20260505054049 | 10 | 0 | 0.0 | 0.0 | 0.00 | 0.13 | 0.00 | 95 | 1013.3 |
| 20260505053547 | 10 | 0 | 0.0 | 0.0 | 0.00 | 0.13 | 0.00 | 95 | 1013.4 |
| 20260505053052 | 10 | 0 | 0.0 | 0.0 | 0.00 | 0.13 | 0.00 | 95 | 1013.4 |
| 20260505052548 | 10 | 0 | 0.0 | 0.0 | 0.00 | 0.13 | 0.00 | 95 | 1013.4 |
| 20260505052048 | 10 | 0 | 0.0 | 0.0 | 0.00 | 0.13 | 0.00 | 95 | 1013.4 |
| 20260505051552 | 10 | 0 | 0.0 | 0.0 | 0.00 | 0.13 | 0.00 | 95 | 1013.5 |
| 20260505051049 | 10 | 0 | 0.0 | 0.0 | 0.00 | 0.13 | 0.00 | 94 | 1013.5 |
| 20260505050547 | 10 | 0 | 0.0 | 0.0 | 0.00 | 0.13 | 0.00 | 95 | 1013.4 |
| 20260505041551 | 11 | 0 | 0.0 | 3.2 | 0.03 | 0.13 | 0.00 | 94 | 1013.4 |
| 20260505041047 | 11 | 0 | 0.0 | 3.2 | 0.03 | 0.13 | 0.00 | 94 | 1013.5 |
| 20260505040549 | 11 | 0 | 1.6 | 3.2 | 0.03 | 0.13 | 0.00 | 94 | 1013.5 |
| 20260505035547 | 11 | 0 | 0.0 | 0.0 | 0.03 | 0.13 | 0.13 | 94 | 1013.6 |
| 20260505035049 | 11 | 0 | 0.0 | 0.0 | 0.00 | 0.10 | 0.10 | 94 | 1013.6 |
| 20260505034553 | 11 | 0 | 0.0 | 0.0 | 0.00 | 0.10 | 0.10 | 94 | 1013.5 |
| 20260505034048 | 11 | 0 | 0.0 | 0.0 | 0.00 | 0.10 | 0.10 | 94 | 1013.6 |
| 20260505033548 | 11 | 0 | 0.0 | 0.0 | 0.00 | 0.10 | 0.10 | 94 | 1013.6 |
| 20260505033049 | 11 | 0 | 0.0 | 0.0 | 0.00 | 0.10 | 0.10 | 94 | 1013.7 |
| 20260505032548 | 11 | 0 | 0.0 | 0.0 | 0.00 | 0.10 | 0.10 | 94 | 1013.7 |
| 20260505032048 | 11 | 0 | 0.0 | 0.0 | 0.00 | 0.10 | 0.10 | 94 | 1013.7 |
| 20260505031558 | 11 | 0 | 0.0 | 0.0 | 0.00 | 0.10 | 0.10 | 94 | 1013.8 |
| 20260505031050 | 11 | 0 | 0.0 | 0.0 | 0.00 | 0.10 | 0.10 | 94 | 1013.8 |
| 20260505030549 | 11 | 0 | 0.0 | 0.0 | 0.00 | 0.10 | 0.10 | 94 | 1013.8 |
| 20260505030054 | 11 | 0 | 0.0 | 0.0 | 0.00 | 0.10 | 0.10 | 94 | 1013.8 |
| 20260505025548 | 12 | 0 | 0.0 | 0.0 | 0.00 | 0.10 | 0.10 | 94 | 1013.8 |
| 20260505025049 | 12 | 0 | 0.0 | 0.0 | 0.00 | 0.10 | 0.10 | 94 | 1013.8 |
| 20260505024553 | 12 | 0 | 0.0 | 0.0 | 0.00 | 0.10 | 0.10 | 94 | 1013.9 |
| 20260505024048 | 12 | 0 | 0.0 | 0.0 | 0.00 | 0.10 | 0.10 | 94 | 1013.8 |
| 20260505023549 | 12 | 0 | 0.0 | 0.0 | 0.00 | 0.10 | 0.10 | 93 | 1013.8 |
| 20260505023052 | 12 | 0 | 0.0 | 0.0 | 0.00 | 0.10 | 0.10 | 93 | 1013.9 |
| 20260505022549 | 12 | 0 | 0.0 | 0.0 | 0.00 | 0.10 | 0.10 | 94 | 1014.0 |
| 20260505022049 | 12 | 0 | 0.0 | 0.0 | 0.00 | 0.10 | 0.10 | 93 | 1014.0 |
| 20260505021552 | 12 | 0 | 0.0 | 0.0 | 0.00 | 0.10 | 0.10 | 93 | 1014.0 |
| 20260505021047 | 12 | 0 | 0.0 | 0.0 | 0.00 | 0.10 | 0.10 | 93 | 1014.1 |
| 20260505020550 | 12 | 0 | 0.0 | 0.0 | 0.00 | 0.10 | 0.10 | 93 | 1014.0 |
| 20260505020052 | 12 | 0 | 0.0 | 0.0 | 0.00 | 0.10 | 0.10 | 93 | 1014.1 |
| 20260505015549 | 12 | 0 | 0.0 | 0.0 | 0.00 | 0.10 | 0.10 | 93 | 1014.1 |
| 20260505015048 | 13 | 0 | 0.0 | 0.0 | 0.00 | 0.10 | 0.10 | 93 | 1014.1 |
| 20260505014603 | 13 | 0 | 0.0 | 0.0 | 0.00 | 0.10 | 0.10 | 93 | 1014.0 |
| 20260505014051 | 13 | 0 | 0.0 | 0.0 | 0.00 | 0.10 | 0.10 | 93 | 1014.0 |
| 20260505013549 | 13 | 0 | 0.0 | 0.0 | 0.00 | 0.10 | 0.10 | 93 | 1013.9 |
| 20260505013052 | 13 | 0 | 0.0 | 0.0 | 0.00 | 0.10 | 0.10 | 93 | 1013.9 |
| 20260505012548 | 13 | 0 | 0.0 | 0.0 | 0.00 | 0.10 | 0.10 | 93 | 1013.8 |
| 20260505012048 | 13 | 0 | 0.0 | 0.0 | 0.00 | 0.10 | 0.10 | 93 | 1013.8 |
| 20260505011557 | 13 | 0 | 0.0 | 0.0 | 0.00 | 0.10 | 0.10 | 93 | 1013.8 |
| 20260505011049 | 13 | 0 | 0.0 | 0.0 | 0.00 | 0.10 | 0.10 | 92 | 1013.7 |
| 20260505010548 | 13 | 0 | 0.0 | 0.0 | 0.00 | 0.10 | 0.10 | 92 | 1013.8 |
| 20260505010052 | 13 | 0 | 0.0 | 0.0 | 0.00 | 0.10 | 0.10 | 92 | 1013.7 |
| 20260505005549 | 13 | 0 | 0.0 | 0.0 | 0.00 | 0.10 | 0.10 | 92 | 1013.6 |
| 20260505005048 | 13 | 0 | 0.0 | 0.0 | 0.00 | 0.10 | 0.10 | 92 | 1013.5 |
| 20260505004555 | 14 | 0 | 0.0 | 0.0 | 0.00 | 0.10 | 0.10 | 92 | 1013.5 |
| 20260505004047 | 14 | 0 | 0.0 | 0.0 | 0.00 | 0.10 | 0.10 | 92 | 1013.6 |
| 20260505003548 | 14 | 0 | 0.0 | 0.0 | 0.00 | 0.10 | 0.10 | 92 | 1013.5 |
| 20260505003056 | 14 | 0 | 0.0 | 0.0 | 0.00 | 0.10 | 0.10 | 91 | 1013.5 |
| 20260505002551 | 14 | 0 | 0.0 | 0.0 | 0.00 | 0.10 | 0.10 | 91 | 1013.6 |
| 20260505002048 | 14 | 0 | 0.0 | 0.0 | 0.00 | 0.10 | 0.10 | 91 | 1013.5 |
| 20260505001554 | 14 | 0 | 0.0 | 0.0 | 0.00 | 0.10 | 0.10 | 91 | 1013.3 |
| 20260505001048 | 15 | 0 | 0.0 | 0.0 | 0.00 | 0.10 | 0.10 | 91 | 1013.2 |
| 20260505000548 | 15 | 0 | 0.0 | 0.0 | 0.00 | 0.10 | 0.10 | 90 | 1013.3 |
| 20260505000059 | 15 | 0 | 0.0 | 0.0 | 0.00 | 0.10 | 0.10 | 90 | 1013.2 |
| 20260504235550 | 15 | 0 | 0.0 | 0.0 | 0.00 | 0.10 | 0.10 | 90 | 1013.2 |
| 20260504235047 | 15 | 0 | 0.0 | 0.0 | 0.00 | 0.10 | 0.10 | 90 | 1013.3 |
| 20260504234555 | 15 | 0 | 0.0 | 0.0 | 0.00 | 0.10 | 0.10 | 89 | 1013.3 |
| 20260504234049 | 15 | 0 | 0.0 | 0.0 | 0.00 | 0.10 | 0.10 | 89 | 1013.2 |
| 20260504233549 | 15 | 0 | 0.0 | 0.0 | 0.05 | 0.10 | 0.10 | 89 | 1013.0 |
| 20260504233055 | 15 | 0 | 0.0 | 0.0 | 0.10 | 0.10 | 0.10 | 88 | 1013.2 |
| 20260504232549 | 15 | 0 | 0.0 | 0.0 | 0.10 | 0.10 | 0.10 | 87 | 1013.2 |
| 20260504232049 | 15 | 0 | 0.0 | 0.0 | 0.10 | 0.10 | 0.10 | 87 | 1013.2 |
| 20260504231556 | 16 | 0 | 0.0 | 0.0 | 0.10 | 0.10 | 0.10 | 86 | 1013.1 |
| 20260504231048 | 16 | 0 | 0.0 | 0.0 | 0.10 | 0.10 | 0.10 | 85 | 1013.1 |
| 20260504230549 | 16 | 0 | 0.0 | 0.0 | 0.10 | 0.10 | 0.10 | 84 | 1013.1 |
| 20260504230052 | 16 | 0 | 0.0 | 1.6 | 0.10 | 0.10 | 0.10 | 82 | 1013.3 |
| 20260504225550 | 16 | 0 | 0.0 | 8.0 | 0.10 | 0.10 | 0.10 | 79 | 1013.2 |
| 20260504225048 | 17 | 360 | 3.2 | 14.5 | 0.10 | 0.10 | 0.10 | 76 | 1013.3 |
| 20260504224550 | 17 | 337 | 3.2 | 35.4 | 0.10 | 0.10 | 0.10 | 69 | 1013.5 |
| 20260504224051 | 18 | 282 | 8.0 | 35.4 | 0.08 | 0.08 | 0.08 | 65 | 1013.6 |
| 20260504223552 | 21 | 286 | 11.3 | 22.5 | 0.05 | 0.05 | 0.05 | 51 | 1014.3 |
| 20260504223054 | 22 | 294 | 4.8 | 17.7 | 0.00 | 0.00 | 0.00 | 40 | 1013.5 |
| 20260504222552 | 22 | 156 | 3.2 | 14.5 | 0.00 | 0.00 | 0.00 | 40 | 1012.8 |
| 20260504222047 | 22 | 217 | 6.4 | 14.5 | 0.00 | 0.00 | 0.00 | 40 | 1012.6 |
| 20260504221552 | 22 | 159 | 6.4 | 17.7 | 0.00 | 0.00 | 0.00 | 39 | 1012.6 |
| 20260504221049 | 23 | 211 | 4.8 | 17.7 | 0.00 | 0.00 | 0.00 | 39 | 1012.5 |
| 20260504220548 | 23 | 173 | 6.4 | 17.7 | 0.00 | 0.00 | 0.00 | 39 | 1012.5 |
| 20260504220052 | 23 | 180 | 3.2 | 22.5 | 0.00 | 0.00 | 0.00 | 40 | 1012.4 |
| 20260504215551 | 23 | 0 | 4.8 | 22.5 | 0.00 | 0.00 | 0.00 | 39 | 1012.2 |
| 20260504215048 | 23 | 188 | 3.2 | 14.5 | 0.00 | 0.00 | 0.00 | 40 | 1012.3 |
| 20260504214555 | 23 | 144 | 3.2 | 14.5 | 0.00 | 0.00 | 0.00 | 41 | 1012.4 |
| 20260504214048 | 23 | 193 | 3.2 | 16.1 | 0.00 | 0.00 | 0.00 | 40 | 1012.5 |
| 20260504213549 | 22 | 128 | 4.8 | 17.7 | 0.00 | 0.00 | 0.00 | 40 | 1012.6 |
| 20260504213049 | 22 | 214 | 6.4 | 17.7 | 0.00 | 0.00 | 0.00 | 39 | 1012.7 |
| 20260504212548 | 23 | 173 | 9.7 | 17.7 | 0.00 | 0.00 | 0.00 | 39 | 1012.7 |
| 20260504212049 | 23 | 161 | 4.8 | 16.1 | 0.00 | 0.00 | 0.00 | 39 | 1012.7 |
| 20260504211549 | 23 | 192 | 8.0 | 29.0 | 0.00 | 0.00 | 0.00 | 39 | 1012.7 |
| 20260504211048 | 23 | 204 | 8.0 | 29.0 | 0.00 | 0.00 | 0.00 | 39 | 1012.7 |
| 20260504210548 | 23 | 206 | 11.3 | 27.4 | 0.00 | 0.00 | 0.00 | 38 | 1012.5 |
| 20260504205549 | 23 | 211 | 11.3 | 22.5 | 0.00 | 0.00 | 0.00 | 39 | 1012.6 |
| 20260504205051 | 23 | 349 | 6.4 | 25.7 | 0.00 | 0.00 | 0.00 | 38 | 1012.7 |
| 20260504204608 | 23 | 244 | 9.7 | 25.7 | 0.00 | 0.00 | 0.00 | 38 | 1012.9 |
| 20260504204048 | 23 | 161 | 8.0 | 25.7 | 0.00 | 0.00 | 0.00 | 38 | 1012.8 |
| 20260504203548 | 23 | 150 | 12.9 | 22.5 | 0.00 | 0.00 | 0.00 | 38 | 1012.8 |
| 20260504203111 | 23 | 173 | 9.7 | 22.5 | 0.00 | 0.00 | 0.00 | 38 | 1012.8 |
| 20260504202547 | 23 | 134 | 6.4 | 22.5 | 0.00 | 0.00 | 0.00 | 40 | 1012.7 |
| 20260504202051 | 23 | 189 | 4.8 | 22.5 | 0.00 | 0.00 | 0.00 | 39 | 1012.6 |
| 20260504201551 | 23 | 162 | 8.0 | 22.5 | 0.00 | 0.00 | 0.00 | 38 | 1012.8 |
| 20260504201048 | 23 | 105 | 8.0 | 22.5 | 0.00 | 0.00 | 0.00 | 39 | 1012.9 |
| 20260504200548 | 23 | 203 | 8.0 | 20.9 | 0.00 | 0.00 | 0.00 | 39 | 1012.9 |
| 20260504200054 | 23 | 124 | 4.8 | 24.1 | 0.00 | 0.00 | 0.00 | 39 | 1013.0 |
| 20260504195548 | 23 | 125 | 9.7 | 24.1 | 0.00 | 0.00 | 0.00 | 40 | 1012.9 |
| 20260504195052 | 23 | 157 | 9.7 | 22.5 | 0.00 | 0.00 | 0.00 | 41 | 1013.1 |
| 20260504194553 | 23 | 155 | 6.4 | 22.5 | 0.00 | 0.00 | 0.00 | 40 | 1013.3 |
| 20260504194052 | 22 | 152 | 9.7 | 22.5 | 0.00 | 0.00 | 0.00 | 40 | 1013.4 |
| 20260504193551 | 22 | 188 | 9.7 | 19.3 | 0.00 | 0.00 | 0.00 | 38 | 1013.4 |
| 20260504193054 | 23 | 254 | 9.7 | 19.3 | 0.00 | 0.00 | 0.00 | 41 | 1013.4 |
| 20260504192551 | 22 | 230 | 6.4 | 22.5 | 0.00 | 0.00 | 0.00 | 39 | 1013.5 |
| 20260504192050 | 22 | 192 | 4.8 | 22.5 | 0.00 | 0.00 | 0.00 | 38 | 1013.6 |
| 20260504191554 | 22 | 173 | 8.0 | 22.5 | 0.00 | 0.00 | 0.00 | 39 | 1013.7 |
| 20260504191050 | 23 | 196 | 6.4 | 16.1 | 0.00 | 0.00 | 0.00 | 37 | 1013.6 |
| 20260504190548 | 23 | 174 | 4.8 | 14.5 | 0.00 | 0.00 | 0.00 | 39 | 1013.6 |
| 20260504190055 | 22 | 209 | 3.2 | 19.3 | 0.00 | 0.00 | 0.00 | 37 | 1013.6 |
| 20260504185548 | 22 | 150 | 4.8 | 27.4 | 0.00 | 0.00 | 0.00 | 38 | 1013.7 |
| 20260504185048 | 22 | 207 | 11.3 | 27.4 | 0.00 | 0.00 | 0.00 | 37 | 1013.9 |
| 20260504184551 | 22 | 162 | 9.7 | 19.3 | 0.00 | 0.00 | 0.00 | 38 | 1014.0 |
| 20260504184048 | 22 | 162 | 8.0 | 20.9 | 0.00 | 0.00 | 0.00 | 36 | 1014.0 |
| 20260504183548 | 22 | 48 | 8.0 | 20.9 | 0.00 | 0.00 | 0.00 | 37 | 1014.0 |
| 20260504183051 | 22 | 171 | 9.7 | 20.9 | 0.00 | 0.00 | 0.00 | 36 | 1014.2 |
| 20260504182549 | 22 | 188 | 4.8 | 19.3 | 0.00 | 0.00 | 0.00 | 36 | 1014.2 |
| 20260504182050 | 22 | 150 | 8.0 | 19.3 | 0.00 | 0.00 | 0.00 | 37 | 1014.2 |
| 20260504181555 | 22 | 342 | 4.8 | 16.1 | 0.00 | 0.00 | 0.00 | 40 | 1014.3 |
| 20260504181051 | 22 | 176 | 6.4 | 17.7 | 0.00 | 0.00 | 0.00 | 37 | 1014.4 |
| 20260504180552 | 22 | 148 | 6.4 | 17.7 | 0.00 | 0.00 | 0.00 | 38 | 1014.5 |
| 20260504180108 | 22 | 169 | 3.2 | 17.7 | 0.00 | 0.00 | 0.00 | 37 | 1014.6 |
| 20260504175548 | 22 | 327 | 6.4 | 17.7 | 0.00 | 0.00 | 0.00 | 36 | 1014.6 |
| 20260504175052 | 22 | 187 | 8.0 | 17.7 | 0.00 | 0.00 | 0.00 | 37 | 1014.6 |
| 20260504174551 | 21 | 138 | 8.0 | 14.5 | 0.00 | 0.00 | 0.00 | 40 | 1014.6 |
| 20260504174050 | 21 | 205 | 4.8 | 17.7 | 0.00 | 0.00 | 0.00 | 38 | 1014.8 |
| 20260504173550 | 21 | 173 | 11.3 | 17.7 | 0.00 | 0.00 | 0.00 | 38 | 1014.8 |
| 20260504173105 | 21 | 128 | 4.8 | 17.7 | 0.00 | 0.00 | 0.00 | 39 | 1014.9 |
| 20260504172548 | 21 | 150 | 6.4 | 17.7 | 0.00 | 0.00 | 0.00 | 38 | 1015.0 |
| 20260504172051 | 21 | 54 | 3.2 | 16.1 | 0.00 | 0.00 | 0.00 | 39 | 1015.0 |
| 20260504171601 | 21 | 164 | 6.4 | 17.7 | 0.00 | 0.00 | 0.00 | 38 | 1015.1 |
| 20260504171049 | 21 | 155 | 8.0 | 17.7 | 0.00 | 0.00 | 0.00 | 38 | 1015.2 |
| 20260504170548 | 21 | 153 | 4.8 | 16.1 | 0.00 | 0.00 | 0.00 | 38 | 1015.2 |
| 20260504160106 | 21 | 154 | 4.8 | 16.1 | 0.00 | 0.00 | 0.00 | 38 | 1015.6 |
| 20260504151048 | 20 | 36 | 1.6 | 12.9 | 0.00 | 0.00 | 0.00 | 38 | 1016.0 |
| 20260504150548 | 19 | 213 | 4.8 | 12.9 | 0.00 | 0.00 | 0.00 | 38 | 1016.2 |
| 20260504141048 | 18 | 142 | 8.0 | 14.5 | 0.00 | 0.00 | 0.00 | 37 | 1016.1 |
| 20260504140549 | 18 | 163 | 1.6 | 12.9 | 0.00 | 0.00 | 0.00 | 41 | 1016.0 |
| 20260504130548 | 15 | 0 | 1.6 | 6.4 | 0.00 | 0.00 | 0.00 | 49 | 1016.8 |